NWK34 YSCB-YMML

Flight info

Callsign NWK34
Flight time 0h 54m
Altitude 38000
Route TANTA Q29 BOOIN
Aircraft A319/M-SDE3FGHIRWY/LB1

Departure

Time 2026-05-04 08:35
Airport Canberra Airport (YSCB)

Arrival

Time 2026-05-04 09:30
Airport Melbourne Airport (YMML)
Time Latitude Longitude Altitude Speed Heading
2026-05-04 08:08 -35.30840 149.19136 1880 ft 0 kts 270°
2026-05-04 08:24 -35.30834 149.19214 1880 ft 4 kts 246°
2026-05-04 08:24 -35.30820 149.19238 1880 ft 4 kts 194°
2026-05-04 08:24 -35.30810 149.19239 1877 ft 1 kts 180°
2026-05-04 08:33 -35.31696 149.19238 1880 ft 34 kts 180°
2026-05-04 08:33 -35.31941 149.19246 1880 ft 35 kts 163°
2026-05-04 08:35 -35.29568 149.19422 2315 ft 152 kts 355°
2026-05-04 08:35 -35.28495 149.19418 3011 ft 153 kts 358°
2026-05-04 08:35 -35.27442 149.19534 3686 ft 155 kts 360°
2026-05-04 08:35 -35.26310 149.19675 4090 ft 173 kts 359°
2026-05-04 08:37 -35.27804 149.12010 7625 ft 277 kts 224°
2026-05-04 08:37 -35.29390 149.10616 8489 ft 284 kts 225°
2026-05-04 08:37 -35.31009 149.09169 9336 ft 291 kts 226°
2026-05-04 08:38 -35.32649 149.07659 10158 ft 299 kts 227°
2026-05-04 08:38 -35.34347 149.06039 10577 ft 321 kts 227°
2026-05-04 08:38 -35.36145 149.04288 11060 ft 337 kts 227°
2026-05-04 08:40 -35.49652 148.91105 16313 ft 369 kts 226°
2026-05-04 08:40 -35.51636 148.89153 17016 ft 373 kts 226°
2026-05-04 08:40 -35.53672 148.87150 17666 ft 377 kts 226°
2026-05-04 08:41 -35.55733 148.85123 18368 ft 382 kts 226°
2026-05-04 08:41 -35.57817 148.83077 18975 ft 385 kts 226°
2026-05-04 08:41 -35.59922 148.81011 19585 ft 389 kts 226°
2026-05-04 08:41 -35.62043 148.78925 20163 ft 392 kts 227°
2026-05-04 08:42 -35.64180 148.76820 20771 ft 395 kts 227°
2026-05-04 08:42 -35.66333 148.74695 21415 ft 398 kts 227°
2026-05-04 08:42 -35.68497 148.72552 22027 ft 401 kts 227°
2026-05-04 08:42 -35.70678 148.70394 22579 ft 405 kts 227°
2026-05-04 08:43 -35.72882 148.68213 23166 ft 408 kts 228°
2026-05-04 08:43 -35.75102 148.66016 23708 ft 411 kts 228°
2026-05-04 08:43 -35.77337 148.63807 24170 ft 414 kts 228°
2026-05-04 08:43 -35.79589 148.61580 24635 ft 416 kts 228°
2026-05-04 08:44 -35.81853 148.59343 25088 ft 418 kts 228°
2026-05-04 08:44 -35.84125 148.57095 25553 ft 420 kts 228°
2026-05-04 08:46 -35.96651 148.37924 28682 ft 414 kts 245°
2026-05-04 08:46 -35.97761 148.35949 28951 ft 415 kts 245°
2026-05-04 08:46 -35.99412 148.33008 29384 ft 418 kts 245°
2026-05-04 08:46 -36.01074 148.30045 29737 ft 422 kts 245°
2026-05-04 08:47 -36.02748 148.27060 30132 ft 424 kts 245°
2026-05-04 08:47 -36.04431 148.24058 30454 ft 426 kts 245°
2026-05-04 08:47 -36.06675 148.20053 30957 ft 429 kts 245°
2026-05-04 08:47 -36.07824 148.18003 31201 ft 430 kts 245°
2026-05-04 08:48 -36.09531 148.14954 31547 ft 431 kts 245°
2026-05-04 08:48 -36.11238 148.11896 31876 ft 433 kts 245°
2026-05-04 08:48 -36.12926 148.08877 32314 ft 431 kts 245°
2026-05-04 08:48 -36.14630 148.05835 32784 ft 429 kts 245°
2026-05-04 08:49 -36.16328 148.02799 33239 ft 428 kts 245°
2026-05-04 08:50 -36.26107 147.85278 34071 ft 402 kts 246°
2026-05-04 08:50 -36.27687 147.82415 34070 ft 403 kts 245°
2026-05-04 08:51 -36.30870 147.76653 34069 ft 405 kts 245°
2026-05-04 08:51 -36.32770 147.73991 34058 ft 425 kts 229°
2026-05-04 08:51 -36.35358 147.72053 34062 ft 448 kts 211°
2026-05-04 08:52 -36.38436 147.71075 34067 ft 468 kts 195°
2026-05-04 08:52 -36.41697 147.70703 34059 ft 472 kts 193°
2026-05-04 08:52 -36.48241 147.70049 34054 ft 470 kts 192°
2026-05-04 08:54 -36.74279 147.67197 34028 ft 468 kts 193°
2026-05-04 08:55 -36.80735 147.66449 34025 ft 468 kts 193°
2026-05-04 08:55 -36.87269 147.65680 34016 ft 470 kts 193°
2026-05-04 08:57 -37.02097 147.51665 33999 ft 389 kts 263°
2026-05-04 09:01 -37.04939 147.04890 31672 ft 371 kts 274°
2026-05-04 09:01 -37.05076 147.01671 31429 ft 369 kts 274°
2026-05-04 09:01 -37.05210 146.98469 31195 ft 369 kts 274°
2026-05-04 09:01 -37.05347 146.95259 30949 ft 368 kts 274°
2026-05-04 09:02 -37.05483 146.92059 30724 ft 367 kts 275°
2026-05-04 09:02 -37.05618 146.88875 30471 ft 366 kts 275°
2026-05-04 09:02 -37.05750 146.85699 30232 ft 365 kts 275°
2026-05-04 09:02 -37.05882 146.82538 30028 ft 361 kts 275°
2026-05-04 09:03 -37.06014 146.79416 29749 ft 358 kts 275°
2026-05-04 09:03 -37.06143 146.76312 29468 ft 356 kts 275°
2026-05-04 09:03 -37.06268 146.73223 29197 ft 355 kts 275°
2026-05-04 09:03 -37.06394 146.70150 28920 ft 352 kts 275°
2026-05-04 09:04 -37.06520 146.67091 28636 ft 351 kts 275°
2026-05-04 09:04 -37.06645 146.64046 28366 ft 349 kts 275°
2026-05-04 09:04 -37.06766 146.61022 28434 ft 348 kts 275°
2026-05-04 09:05 -37.07003 146.54955 28385 ft 348 kts 275°
2026-05-04 09:05 -37.07119 146.51934 27921 ft 346 kts 275°
2026-05-04 09:05 -37.07235 146.48983 27560 ft 342 kts 275°
2026-05-04 09:05 -37.07354 146.46026 27209 ft 338 kts 275°
2026-05-04 09:06 -37.07471 146.43106 26878 ft 334 kts 275°
2026-05-04 09:07 -37.13212 146.24534 25122 ft 334 kts 246°
2026-05-04 09:08 -37.14489 146.22102 25053 ft 333 kts 246°
2026-05-04 09:08 -37.15761 146.19673 24977 ft 333 kts 246°
2026-05-04 09:08 -37.17030 146.17246 24907 ft 332 kts 246°
2026-05-04 09:08 -37.18299 146.14825 24842 ft 332 kts 245°
2026-05-04 09:09 -37.19576 146.12401 24773 ft 334 kts 245°
2026-05-04 09:09 -37.20859 146.09966 24652 ft 335 kts 245°
2026-05-04 09:09 -37.22145 146.07527 24337 ft 334 kts 245°
2026-05-04 09:09 -37.23419 146.05107 23977 ft 332 kts 244°
2026-05-04 09:10 -37.24694 146.02682 23601 ft 333 kts 243°
2026-05-04 09:10 -37.25961 146.00268 23151 ft 330 kts 243°
2026-05-04 09:10 -37.27218 145.97877 22764 ft 327 kts 243°
2026-05-04 09:10 -37.28467 145.95504 22375 ft 324 kts 242°
2026-05-04 09:11 -37.29699 145.93157 21986 ft 320 kts 242°
2026-05-04 09:11 -37.30920 145.90829 21580 ft 318 kts 242°
2026-05-04 09:11 -37.32138 145.88510 21172 ft 317 kts 243°
2026-05-04 09:11 -37.33351 145.86203 20767 ft 316 kts 242°
2026-05-04 09:12 -37.34562 145.83898 20360 ft 315 kts 243°
2026-05-04 09:12 -37.35766 145.81602 19948 ft 314 kts 243°
2026-05-04 09:14 -37.44075 145.65697 17080 ft 305 kts 241°
2026-05-04 09:14 -37.45231 145.63483 16694 ft 301 kts 241°
2026-05-04 09:14 -37.46428 145.61321 16301 ft 300 kts 239°
2026-05-04 09:14 -37.47659 145.59207 15907 ft 299 kts 238°
2026-05-04 09:15 -37.48899 145.57113 15526 ft 298 kts 238°
2026-05-04 09:15 -37.50138 145.55026 15136 ft 296 kts 238°
2026-05-04 09:15 -37.51362 145.52955 14759 ft 294 kts 238°
2026-05-04 09:15 -37.52575 145.50883 14377 ft 293 kts 238°
2026-05-04 09:17 -37.61981 145.34654 11393 ft 279 kts 239°
2026-05-04 09:18 -37.63121 145.32678 11027 ft 277 kts 239°
2026-05-04 09:18 -37.64253 145.30716 10678 ft 275 kts 239°
2026-05-04 09:18 -37.65377 145.28769 10327 ft 274 kts 240°
2026-05-04 09:18 -37.66499 145.26823 9971 ft 274 kts 240°
2026-05-04 09:19 -37.67612 145.24888 9655 ft 271 kts 239°
2026-05-04 09:19 -37.68715 145.22969 9306 ft 269 kts 239°
2026-05-04 09:19 -37.69812 145.21066 8956 ft 267 kts 239°
2026-05-04 09:19 -37.70918 145.19143 8306 ft 275 kts 239°
2026-05-04 09:20 -37.72025 145.17213 7844 ft 268 kts 239°
2026-05-04 09:20 -37.73085 145.15374 7644 ft 251 kts 239°
2026-05-04 09:20 -37.74097 145.13616 7222 ft 245 kts 240°
2026-05-04 09:20 -37.75087 145.11891 6905 ft 237 kts 240°
2026-05-04 09:21 -37.76032 145.10254 6572 ft 227 kts 240°
2026-05-04 09:21 -37.76954 145.08649 6407 ft 225 kts 240°
2026-05-04 09:21 -37.77875 145.07035 6138 ft 227 kts 241°
2026-05-04 09:21 -37.78776 145.05465 5913 ft 212 kts 241°
2026-05-04 09:22 -37.79623 145.03998 5592 ft 204 kts 242°
2026-05-04 09:22 -37.80440 145.02575 5209 ft 196 kts 243°
2026-05-04 09:22 -37.81158 145.01132 4653 ft 190 kts 252°
2026-05-04 09:22 -37.81594 144.99595 4104 ft 182 kts 261°
2026-05-04 09:23 -37.81859 144.98038 3600 ft 178 kts 263°
2026-05-04 09:23 -37.82118 144.96579 3458 ft 164 kts 263°
2026-05-04 09:23 -37.82359 144.95207 3335 ft 161 kts 263°
2026-05-04 09:23 -37.82589 144.93834 3211 ft 159 kts 265°
2026-05-04 09:25 -37.81338 144.86530 2509 ft 147 kts 344°
2026-05-04 09:25 -37.80326 144.86347 2511 ft 146 kts 342°
2026-05-04 09:26 -37.79329 144.86151 2460 ft 145 kts 342°
2026-05-04 09:26 -37.78374 144.85969 2262 ft 131 kts 343°
2026-05-04 09:26 -37.77525 144.85809 2098 ft 118 kts 342°
2026-05-04 09:26 -37.76734 144.85656 1943 ft 112 kts 343°
2026-05-04 09:27 -37.75979 144.85509 1795 ft 110 kts 342°
2026-05-04 09:27 -37.75223 144.85363 1663 ft 110 kts 343°
2026-05-04 09:27 -37.74461 144.85217 1511 ft 111 kts 343°
2026-05-04 09:27 -37.73704 144.85073 1356 ft 111 kts 349°
2026-05-04 09:28 -37.72930 144.84927 1196 ft 114 kts 351°
2026-05-04 09:28 -37.72153 144.84772 1088 ft 112 kts 348°
2026-05-04 09:28 -37.71393 144.84606 888 ft 113 kts 352°
2026-05-04 09:28 -37.70605 144.84464 702 ft 116 kts 354°
2026-05-04 09:29 -37.69800 144.84314 628 ft 116 kts 353°
2026-05-04 09:29 -37.69009 144.84159 487 ft 117 kts 352°
2026-05-04 09:29 -37.68227 144.84021 362 ft 108 kts 353°
2026-05-04 09:29 -37.67609 144.83911 364 ft 67 kts 352°
2026-05-04 09:30 -37.67313 144.83858 374 ft 18 kts 352°
2026-05-04 09:30 -37.67222 144.83842 379 ft 22 kts 352°
2026-05-04 09:30 -37.67039 144.83840 385 ft 30 kts
2026-05-04 09:30 -37.66915 144.83874 389 ft 24 kts 22°
2026-05-04 09:31 -37.66863 144.83901 391 ft 1 kts 21°
2026-05-04 09:31 -37.66862 144.83902 391 ft 0 kts 21°
2026-05-04 09:32 -37.66843 144.83911 391 ft 6 kts 22°
2026-05-04 09:34 -37.67195 144.84429 384 ft 3 kts 89°
2026-05-04 09:34 -37.67201 144.84467 385 ft 6 kts 102°
2026-05-04 09:34 -37.67208 144.84525 385 ft 8 kts 92°
2026-05-04 09:34 -37.67203 144.84602 386 ft 9 kts 82°
2026-05-04 09:35 -37.67194 144.84687 388 ft 10 kts 82°
2026-05-04 09:35 -37.67223 144.84758 388 ft 7 kts 162°
2026-05-04 09:35 -37.67267 144.84768 387 ft 0 kts 171°